Audubon, Illinois
Current Conditions -  °F | °C
As of 12:55 PM on Tuesday 27 Jan 2015 (Local Time) from KTAZ Reporting Station
Overcast Overcast  
Wind Chill: 24°   Ceiling: 1300
Heat Index: 32°   Visibility: 7mi
Dew Point: 30°   Wind: 9mph
Humidity: 93%   Direction: 360°N
Pressure: 30.17"   Gusts: NA
Location:  39.3183°N, 89.2952°W
Report Text: KTAZ 271855Z AUTO 36008KT 7SM OVC013 00/M01 A3017 RMK AO2
Loading
Personal Weather Stations






























Interactive Weather Map New forecast layout! Learn more

10-Day Weather Forecast

Advertisements
Track Severe Weather on mobile